sensor_id;sensor_type;location;lat;lon;timestamp;P1;durP1;ratioP1;P2;durP2;ratioP2
75016;SDS011;63577;39.766;2.720;2023-10-19T00:01:20;3.50;;;0.80;;
75016;SDS011;63577;39.766;2.720;2023-10-19T00:03:48;4.40;;;0.90;;
75016;SDS011;63577;39.766;2.720;2023-10-19T00:06:15;4.40;;;0.90;;
75016;SDS011;63577;39.766;2.720;2023-10-19T00:08:40;6.70;;;1.20;;
75016;SDS011;63577;39.766;2.720;2023-10-19T00:11:11;5.40;;;1.20;;
75016;SDS011;63577;39.766;2.720;2023-10-19T00:14:06;5.20;;;1.00;;
75016;SDS011;63577;39.766;2.720;2023-10-19T00:16:41;3.30;;;0.80;;
75016;SDS011;63577;39.766;2.720;2023-10-19T00:19:09;4.50;;;0.90;;
75016;SDS011;63577;39.766;2.720;2023-10-19T00:21:35;3.30;;;0.90;;
75016;SDS011;63577;39.766;2.720;2023-10-19T00:24:15;5.00;;;1.10;;
75016;SDS011;63577;39.766;2.720;2023-10-19T00:26:42;3.40;;;0.80;;
75016;SDS011;63577;39.766;2.720;2023-10-19T00:29:07;4.00;;;0.90;;
75016;SDS011;63577;39.766;2.720;2023-10-19T00:31:51;4.40;;;0.80;;
75016;SDS011;63577;39.766;2.720;2023-10-19T00:34:16;4.10;;;0.90;;
75016;SDS011;63577;39.766;2.720;2023-10-19T00:36:41;5.10;;;0.90;;
75016;SDS011;63577;39.766;2.720;2023-10-19T00:39:07;4.30;;;1.00;;
75016;SDS011;63577;39.766;2.720;2023-10-19T00:41:40;4.30;;;0.90;;
75016;SDS011;63577;39.766;2.720;2023-10-19T00:44:07;3.10;;;0.80;;
75016;SDS011;63577;39.766;2.720;2023-10-19T00:46:36;3.30;;;0.80;;
75016;SDS011;63577;39.766;2.720;2023-10-19T00:49:07;3.60;;;0.80;;
75016;SDS011;63577;39.766;2.720;2023-10-19T00:51:39;4.20;;;0.70;;
75016;SDS011;63577;39.766;2.720;2023-10-19T00:54:21;3.70;;;1.00;;
75016;SDS011;63577;39.766;2.720;2023-10-19T00:57:17;4.00;;;0.80;;
75016;SDS011;63577;39.766;2.720;2023-10-19T00:59:47;4.30;;;0.80;;
75016;SDS011;63577;39.766;2.720;2023-10-19T01:02:19;4.60;;;0.90;;
75016;SDS011;63577;39.766;2.720;2023-10-19T01:04:49;3.20;;;0.80;;
75016;SDS011;63577;39.766;2.720;2023-10-19T01:07:21;4.50;;;0.80;;
75016;SDS011;63577;39.766;2.720;2023-10-19T01:09:48;5.60;;;0.90;;
75016;SDS011;63577;39.766;2.720;2023-10-19T01:12:18;5.40;;;0.90;;
75016;SDS011;63577;39.766;2.720;2023-10-19T01:15:11;4.70;;;0.90;;
75016;SDS011;63577;39.766;2.720;2023-10-19T01:17:55;6.10;;;1.00;;
75016;SDS011;63577;39.766;2.720;2023-10-19T01:20:24;3.50;;;0.70;;
75016;SDS011;63577;39.766;2.720;2023-10-19T01:23:03;5.00;;;1.10;;
75016;SDS011;63577;39.766;2.720;2023-10-19T01:28:21;6.40;;;0.90;;
75016;SDS011;63577;39.766;2.720;2023-10-19T01:30:50;4.60;;;0.70;;
75016;SDS011;63577;39.766;2.720;2023-10-19T01:33:19;6.50;;;1.30;;
75016;SDS011;63577;39.766;2.720;2023-10-19T01:35:45;4.90;;;1.20;;
75016;SDS011;63577;39.766;2.720;2023-10-19T01:38:29;7.60;;;0.90;;
75016;SDS011;63577;39.766;2.720;2023-10-19T01:40:56;5.70;;;0.80;;
75016;SDS011;63577;39.766;2.720;2023-10-19T01:43:24;4.90;;;0.90;;
75016;SDS011;63577;39.766;2.720;2023-10-19T01:45:53;4.00;;;0.90;;
75016;SDS011;63577;39.766;2.720;2023-10-19T01:48:21;4.50;;;0.90;;
75016;SDS011;63577;39.766;2.720;2023-10-19T01:51:01;4.20;;;0.70;;
75016;SDS011;63577;39.766;2.720;2023-10-19T01:53:28;4.40;;;1.00;;
75016;SDS011;63577;39.766;2.720;2023-10-19T01:55:54;2.80;;;0.70;;
75016;SDS011;63577;39.766;2.720;2023-10-19T01:58:23;3.20;;;0.90;;
75016;SDS011;63577;39.766;2.720;2023-10-19T02:00:50;5.60;;;0.90;;
75016;SDS011;63577;39.766;2.720;2023-10-19T02:03:19;4.50;;;0.90;;
75016;SDS011;63577;39.766;2.720;2023-10-19T02:05:46;3.90;;;0.80;;
75016;SDS011;63577;39.766;2.720;2023-10-19T02:08:14;4.30;;;0.80;;
75016;SDS011;63577;39.766;2.720;2023-10-19T02:10:45;4.90;;;0.90;;
75016;SDS011;63577;39.766;2.720;2023-10-19T02:13:10;3.90;;;0.80;;
75016;SDS011;63577;39.766;2.720;2023-10-19T02:15:39;3.00;;;0.70;;
75016;SDS011;63577;39.766;2.720;2023-10-19T02:18:04;6.00;;;0.90;;
75016;SDS011;63577;39.766;2.720;2023-10-19T02:20:29;5.10;;;1.00;;
75016;SDS011;63577;39.766;2.720;2023-10-19T02:22:56;5.40;;;0.80;;
75016;SDS011;63577;39.766;2.720;2023-10-19T02:25:28;5.20;;;0.80;;
75016;SDS011;63577;39.766;2.720;2023-10-19T02:27:55;3.70;;;0.80;;
75016;SDS011;63577;39.766;2.720;2023-10-19T02:30:21;4.50;;;0.70;;
75016;SDS011;63577;39.766;2.720;2023-10-19T02:32:46;7.20;;;1.10;;
75016;SDS011;63577;39.766;2.720;2023-10-19T02:35:13;4.60;;;0.90;;
75016;SDS011;63577;39.766;2.720;2023-10-19T02:37:39;3.70;;;1.00;;
75016;SDS011;63577;39.766;2.720;2023-10-19T02:40:04;4.40;;;0.80;;
75016;SDS011;63577;39.766;2.720;2023-10-19T02:42:37;4.00;;;0.80;;
75016;SDS011;63577;39.766;2.720;2023-10-19T02:45:03;3.80;;;0.70;;
75016;SDS011;63577;39.766;2.720;2023-10-19T02:47:30;3.70;;;0.80;;
75016;SDS011;63577;39.766;2.720;2023-10-19T02:49:55;5.50;;;0.80;;
75016;SDS011;63577;39.766;2.720;2023-10-19T02:52:21;3.30;;;0.80;;
75016;SDS011;63577;39.766;2.720;2023-10-19T02:54:47;4.10;;;0.70;;
75016;SDS011;63577;39.766;2.720;2023-10-19T02:57:12;2.70;;;0.70;;
75016;SDS011;63577;39.766;2.720;2023-10-19T02:59:38;3.60;;;0.70;;
75016;SDS011;63577;39.766;2.720;2023-10-19T03:02:04;4.60;;;0.90;;
75016;SDS011;63577;39.766;2.720;2023-10-19T03:04:40;3.60;;;0.60;;
75016;SDS011;63577;39.766;2.720;2023-10-19T03:07:07;5.60;;;1.00;;
75016;SDS011;63577;39.766;2.720;2023-10-19T03:09:33;3.80;;;0.80;;
75016;SDS011;63577;39.766;2.720;2023-10-19T03:12:01;2.70;;;0.70;;
75016;SDS011;63577;39.766;2.720;2023-10-19T03:14:34;4.60;;;0.90;;
75016;SDS011;63577;39.766;2.720;2023-10-19T03:16:59;3.60;;;0.60;;
75016;SDS011;63577;39.766;2.720;2023-10-19T03:19:25;5.40;;;0.90;;
75016;SDS011;63577;39.766;2.720;2023-10-19T03:21:50;4.40;;;0.70;;
75016;SDS011;63577;39.766;2.720;2023-10-19T03:24:16;4.00;;;0.90;;
75016;SDS011;63577;39.766;2.720;2023-10-19T03:27:04;2.90;;;0.70;;
75016;SDS011;63577;39.766;2.720;2023-10-19T03:29:48;3.80;;;0.80;;
75016;SDS011;63577;39.766;2.720;2023-10-19T03:32:19;4.70;;;1.00;;
75016;SDS011;63577;39.766;2.720;2023-10-19T03:34:51;4.30;;;0.90;;
75016;SDS011;63577;39.766;2.720;2023-10-19T03:37:20;3.80;;;0.80;;
75016;SDS011;63577;39.766;2.720;2023-10-19T03:39:47;4.00;;;1.00;;
75016;SDS011;63577;39.766;2.720;2023-10-19T03:42:13;4.80;;;0.90;;
75016;SDS011;63577;39.766;2.720;2023-10-19T03:44:39;5.40;;;1.10;;
75016;SDS011;63577;39.766;2.720;2023-10-19T03:47:13;4.90;;;0.90;;
75016;SDS011;63577;39.766;2.720;2023-10-19T03:49:43;5.30;;;0.90;;
75016;SDS011;63577;39.766;2.720;2023-10-19T03:52:09;5.80;;;1.30;;
75016;SDS011;63577;39.766;2.720;2023-10-19T03:54:34;4.60;;;0.90;;
75016;SDS011;63577;39.766;2.720;2023-10-19T03:57:03;4.90;;;1.10;;
75016;SDS011;63577;39.766;2.720;2023-10-19T03:59:31;5.00;;;0.80;;
75016;SDS011;63577;39.766;2.720;2023-10-19T04:01:59;4.60;;;1.20;;
75016;SDS011;63577;39.766;2.720;2023-10-19T04:04:25;5.10;;;1.20;;
75016;SDS011;63577;39.766;2.720;2023-10-19T04:06:50;5.00;;;1.10;;
75016;SDS011;63577;39.766;2.720;2023-10-19T04:09:22;5.60;;;1.10;;
75016;SDS011;63577;39.766;2.720;2023-10-19T04:11:48;5.60;;;1.10;;
75016;SDS011;63577;39.766;2.720;2023-10-19T04:14:17;5.80;;;0.90;;
75016;SDS011;63577;39.766;2.720;2023-10-19T04:16:42;5.70;;;1.20;;
75016;SDS011;63577;39.766;2.720;2023-10-19T04:19:11;4.70;;;1.00;;
75016;SDS011;63577;39.766;2.720;2023-10-19T04:21:37;5.30;;;1.00;;
75016;SDS011;63577;39.766;2.720;2023-10-19T04:24:05;6.20;;;1.10;;
75016;SDS011;63577;39.766;2.720;2023-10-19T04:26:32;6.10;;;0.90;;
75016;SDS011;63577;39.766;2.720;2023-10-19T04:29:02;4.80;;;1.10;;
75016;SDS011;63577;39.766;2.720;2023-10-19T04:31:34;6.80;;;1.10;;
75016;SDS011;63577;39.766;2.720;2023-10-19T04:34:02;5.80;;;0.90;;
75016;SDS011;63577;39.766;2.720;2023-10-19T04:36:32;4.90;;;0.90;;
75016;SDS011;63577;39.766;2.720;2023-10-19T04:38:59;6.10;;;1.00;;
75016;SDS011;63577;39.766;2.720;2023-10-19T04:41:25;9.20;;;1.10;;
75016;SDS011;63577;39.766;2.720;2023-10-19T04:43:52;5.70;;;1.10;;
75016;SDS011;63577;39.766;2.720;2023-10-19T04:46:17;9.00;;;1.40;;
75016;SDS011;63577;39.766;2.720;2023-10-19T04:48:44;4.50;;;0.90;;
75016;SDS011;63577;39.766;2.720;2023-10-19T04:51:09;4.10;;;0.80;;
75016;SDS011;63577;39.766;2.720;2023-10-19T04:53:35;4.60;;;0.90;;
75016;SDS011;63577;39.766;2.720;2023-10-19T04:56:00;7.10;;;1.20;;
75016;SDS011;63577;39.766;2.720;2023-10-19T04:58:26;6.50;;;1.00;;
75016;SDS011;63577;39.766;2.720;2023-10-19T05:00:53;5.50;;;1.30;;
75016;SDS011;63577;39.766;2.720;2023-10-19T05:03:18;4.30;;;0.90;;
75016;SDS011;63577;39.766;2.720;2023-10-19T05:05:44;5.10;;;1.00;;
75016;SDS011;63577;39.766;2.720;2023-10-19T05:08:10;5.30;;;0.80;;
75016;SDS011;63577;39.766;2.720;2023-10-19T05:10:35;7.40;;;1.00;;
75016;SDS011;63577;39.766;2.720;2023-10-19T05:13:01;5.40;;;1.00;;
75016;SDS011;63577;39.766;2.720;2023-10-19T05:15:26;6.00;;;0.90;;
75016;SDS011;63577;39.766;2.720;2023-10-19T05:17:51;4.20;;;1.00;;
75016;SDS011;63577;39.766;2.720;2023-10-19T05:20:18;6.60;;;0.80;;
75016;SDS011;63577;39.766;2.720;2023-10-19T05:22:46;4.30;;;0.90;;
75016;SDS011;63577;39.766;2.720;2023-10-19T05:25:11;5.70;;;1.00;;
75016;SDS011;63577;39.766;2.720;2023-10-19T05:27:37;6.50;;;0.90;;
75016;SDS011;63577;39.766;2.720;2023-10-19T05:30:02;5.30;;;0.90;;
75016;SDS011;63577;39.766;2.720;2023-10-19T05:32:29;7.60;;;1.00;;
75016;SDS011;63577;39.766;2.720;2023-10-19T05:34:55;4.80;;;0.80;;
75016;SDS011;63577;39.766;2.720;2023-10-19T05:37:22;6.60;;;1.10;;
75016;SDS011;63577;39.766;2.720;2023-10-19T05:39:47;4.10;;;0.80;;
75016;SDS011;63577;39.766;2.720;2023-10-19T05:42:16;7.60;;;1.10;;
75016;SDS011;63577;39.766;2.720;2023-10-19T05:44:41;7.70;;;1.20;;
75016;SDS011;63577;39.766;2.720;2023-10-19T05:47:06;3.90;;;0.80;;
75016;SDS011;63577;39.766;2.720;2023-10-19T05:49:32;4.20;;;0.80;;
75016;SDS011;63577;39.766;2.720;2023-10-19T05:51:58;2.70;;;0.70;;
75016;SDS011;63577;39.766;2.720;2023-10-19T05:54:24;7.10;;;1.20;;
75016;SDS011;63577;39.766;2.720;2023-10-19T05:56:49;4.90;;;1.10;;
75016;SDS011;63577;39.766;2.720;2023-10-19T05:59:15;6.00;;;1.20;;
75016;SDS011;63577;39.766;2.720;2023-10-19T06:01:40;5.20;;;1.10;;
75016;SDS011;63577;39.766;2.720;2023-10-19T06:04:06;3.90;;;1.00;;
75016;SDS011;63577;39.766;2.720;2023-10-19T06:06:31;5.20;;;1.10;;
75016;SDS011;63577;39.766;2.720;2023-10-19T06:08:57;7.00;;;1.30;;
75016;SDS011;63577;39.766;2.720;2023-10-19T06:11:22;4.80;;;1.30;;
75016;SDS011;63577;39.766;2.720;2023-10-19T06:13:48;5.30;;;1.10;;
75016;SDS011;63577;39.766;2.720;2023-10-19T06:16:13;7.20;;;1.50;;
75016;SDS011;63577;39.766;2.720;2023-10-19T06:18:43;5.50;;;1.30;;
75016;SDS011;63577;39.766;2.720;2023-10-19T06:21:08;7.70;;;1.40;;
75016;SDS011;63577;39.766;2.720;2023-10-19T06:23:35;6.90;;;0.90;;
75016;SDS011;63577;39.766;2.720;2023-10-19T06:26:07;5.60;;;0.90;;
75016;SDS011;63577;39.766;2.720;2023-10-19T06:28:33;6.70;;;1.20;;
75016;SDS011;63577;39.766;2.720;2023-10-19T06:31:03;5.60;;;0.90;;
75016;SDS011;63577;39.766;2.720;2023-10-19T06:33:29;5.60;;;1.10;;
75016;SDS011;63577;39.766;2.720;2023-10-19T06:35:58;4.70;;;0.90;;
75016;SDS011;63577;39.766;2.720;2023-10-19T06:38:24;5.20;;;0.80;;
75016;SDS011;63577;39.766;2.720;2023-10-19T06:40:49;5.30;;;1.00;;
75016;SDS011;63577;39.766;2.720;2023-10-19T06:43:15;7.10;;;0.90;;
75016;SDS011;63577;39.766;2.720;2023-10-19T06:45:40;5.80;;;0.80;;
75016;SDS011;63577;39.766;2.720;2023-10-19T06:48:05;7.00;;;0.90;;
75016;SDS011;63577;39.766;2.720;2023-10-19T06:50:31;6.20;;;0.80;;
75016;SDS011;63577;39.766;2.720;2023-10-19T06:52:57;7.00;;;0.80;;
75016;SDS011;63577;39.766;2.720;2023-10-19T06:55:22;6.40;;;1.40;;
75016;SDS011;63577;39.766;2.720;2023-10-19T06:57:48;5.40;;;0.90;;
75016;SDS011;63577;39.766;2.720;2023-10-19T07:00:14;7.00;;;1.20;;
75016;SDS011;63577;39.766;2.720;2023-10-19T07:02:44;7.50;;;1.30;;
75016;SDS011;63577;39.766;2.720;2023-10-19T07:05:11;6.90;;;1.50;;
75016;SDS011;63577;39.766;2.720;2023-10-19T07:07:38;4.90;;;1.00;;
75016;SDS011;63577;39.766;2.720;2023-10-19T07:10:05;8.10;;;1.00;;
75016;SDS011;63577;39.766;2.720;2023-10-19T07:12:31;7.60;;;1.10;;
75016;SDS011;63577;39.766;2.720;2023-10-19T07:14:56;6.30;;;1.10;;
75016;SDS011;63577;39.766;2.720;2023-10-19T07:17:22;7.00;;;1.20;;
75016;SDS011;63577;39.766;2.720;2023-10-19T07:19:47;6.60;;;1.00;;
75016;SDS011;63577;39.766;2.720;2023-10-19T07:22:14;6.10;;;1.10;;
75016;SDS011;63577;39.766;2.720;2023-10-19T07:24:40;8.10;;;1.20;;
75016;SDS011;63577;39.766;2.720;2023-10-19T07:27:06;6.70;;;1.10;;
75016;SDS011;63577;39.766;2.720;2023-10-19T07:29:33;8.40;;;1.00;;
75016;SDS011;63577;39.766;2.720;2023-10-19T07:32:01;8.40;;;1.10;;
75016;SDS011;63577;39.766;2.720;2023-10-19T07:34:27;6.60;;;1.30;;
75016;SDS011;63577;39.766;2.720;2023-10-19T07:36:56;5.60;;;1.30;;
75016;SDS011;63577;39.766;2.720;2023-10-19T07:39:24;6.70;;;1.20;;
75016;SDS011;63577;39.766;2.720;2023-10-19T07:41:50;6.20;;;1.20;;
75016;SDS011;63577;39.766;2.720;2023-10-19T07:44:16;7.10;;;1.20;;
75016;SDS011;63577;39.766;2.720;2023-10-19T07:46:41;8.40;;;1.20;;
75016;SDS011;63577;39.766;2.720;2023-10-19T07:49:07;6.50;;;1.30;;
75016;SDS011;63577;39.766;2.720;2023-10-19T07:51:33;8.50;;;1.10;;
75016;SDS011;63577;39.766;2.720;2023-10-19T07:53:58;5.20;;;0.80;;
75016;SDS011;63577;39.766;2.720;2023-10-19T07:56:24;6.70;;;1.30;;
75016;SDS011;63577;39.766;2.720;2023-10-19T07:58:49;6.20;;;1.00;;
75016;SDS011;63577;39.766;2.720;2023-10-19T08:01:15;4.60;;;1.00;;
75016;SDS011;63577;39.766;2.720;2023-10-19T08:03:40;5.90;;;1.10;;
75016;SDS011;63577;39.766;2.720;2023-10-19T08:06:06;5.60;;;1.10;;
75016;SDS011;63577;39.766;2.720;2023-10-19T08:08:31;5.90;;;1.20;;
75016;SDS011;63577;39.766;2.720;2023-10-19T08:10:59;8.20;;;2.70;;
75016;SDS011;63577;39.766;2.720;2023-10-19T08:13:25;8.30;;;2.20;;
75016;SDS011;63577;39.766;2.720;2023-10-19T08:15:51;7.50;;;1.70;;
75016;SDS011;63577;39.766;2.720;2023-10-19T08:18:17;8.80;;;1.40;;
75016;SDS011;63577;39.766;2.720;2023-10-19T08:20:43;7.00;;;1.80;;
75016;SDS011;63577;39.766;2.720;2023-10-19T08:23:10;9.00;;;2.10;;
75016;SDS011;63577;39.766;2.720;2023-10-19T08:25:36;8.70;;;1.60;;
75016;SDS011;63577;39.766;2.720;2023-10-19T08:28:01;8.40;;;2.40;;
75016;SDS011;63577;39.766;2.720;2023-10-19T08:30:26;7.40;;;1.70;;
75016;SDS011;63577;39.766;2.720;2023-10-19T08:32:52;5.90;;;1.50;;
75016;SDS011;63577;39.766;2.720;2023-10-19T08:35:21;6.30;;;1.10;;
75016;SDS011;63577;39.766;2.720;2023-10-19T08:37:49;6.00;;;1.80;;
75016;SDS011;63577;39.766;2.720;2023-10-19T08:40:15;6.10;;;1.40;;
75016;SDS011;63577;39.766;2.720;2023-10-19T08:42:42;5.90;;;1.90;;
75016;SDS011;63577;39.766;2.720;2023-10-19T08:45:08;5.90;;;1.40;;
75016;SDS011;63577;39.766;2.720;2023-10-19T08:47:35;7.20;;;1.40;;
75016;SDS011;63577;39.766;2.720;2023-10-19T08:50:02;6.70;;;1.40;;
75016;SDS011;63577;39.766;2.720;2023-10-19T08:52:27;6.70;;;1.40;;
75016;SDS011;63577;39.766;2.720;2023-10-19T08:54:53;5.40;;;0.90;;
75016;SDS011;63577;39.766;2.720;2023-10-19T08:57:18;5.80;;;0.90;;
75016;SDS011;63577;39.766;2.720;2023-10-19T08:59:44;5.00;;;1.00;;
75016;SDS011;63577;39.766;2.720;2023-10-19T09:02:11;3.60;;;0.90;;
75016;SDS011;63577;39.766;2.720;2023-10-19T09:04:41;4.30;;;1.00;;
75016;SDS011;63577;39.766;2.720;2023-10-19T09:07:07;4.70;;;1.20;;
75016;SDS011;63577;39.766;2.720;2023-10-19T09:09:35;4.90;;;1.10;;
75016;SDS011;63577;39.766;2.720;2023-10-19T09:12:04;4.50;;;1.00;;
75016;SDS011;63577;39.766;2.720;2023-10-19T09:14:33;4.00;;;0.90;;
75016;SDS011;63577;39.766;2.720;2023-10-19T09:16:59;5.60;;;1.10;;
75016;SDS011;63577;39.766;2.720;2023-10-19T09:22:03;4.40;;;0.90;;
75016;SDS011;63577;39.766;2.720;2023-10-19T09:24:44;4.90;;;0.80;;
75016;SDS011;63577;39.766;2.720;2023-10-19T09:27:10;5.10;;;0.80;;
75016;SDS011;63577;39.766;2.720;2023-10-19T09:29:36;4.70;;;1.10;;
75016;SDS011;63577;39.766;2.720;2023-10-19T09:32:01;4.60;;;1.10;;
75016;SDS011;63577;39.766;2.720;2023-10-19T09:34:30;5.00;;;0.90;;
75016;SDS011;63577;39.766;2.720;2023-10-19T09:37:02;4.10;;;0.80;;
75016;SDS011;63577;39.766;2.720;2023-10-19T09:39:31;4.70;;;0.70;;
75016;SDS011;63577;39.766;2.720;2023-10-19T09:42:05;4.20;;;0.80;;
75016;SDS011;63577;39.766;2.720;2023-10-19T09:44:34;4.80;;;0.80;;
75016;SDS011;63577;39.766;2.720;2023-10-19T09:47:03;4.50;;;1.00;;
75016;SDS011;63577;39.766;2.720;2023-10-19T09:49:30;5.10;;;1.00;;
75016;SDS011;63577;39.766;2.720;2023-10-19T09:51:55;4.80;;;0.70;;
75016;SDS011;63577;39.766;2.720;2023-10-19T09:54:22;4.20;;;0.80;;
75016;SDS011;63577;39.766;2.720;2023-10-19T09:56:52;4.30;;;0.80;;
75016;SDS011;63577;39.766;2.720;2023-10-19T09:59:26;4.10;;;0.90;;
75016;SDS011;63577;39.766;2.720;2023-10-19T10:04:32;4.60;;;0.80;;
75016;SDS011;63577;39.766;2.720;2023-10-19T10:06:58;3.10;;;0.70;;
75016;SDS011;63577;39.766;2.720;2023-10-19T10:09:25;3.20;;;0.80;;
75016;SDS011;63577;39.766;2.720;2023-10-19T10:11:51;4.40;;;0.90;;
75016;SDS011;63577;39.766;2.720;2023-10-19T10:14:23;5.50;;;1.20;;
75016;SDS011;63577;39.766;2.720;2023-10-19T10:17:00;4.90;;;1.00;;
75016;SDS011;63577;39.766;2.720;2023-10-19T10:19:26;3.70;;;0.70;;
75016;SDS011;63577;39.766;2.720;2023-10-19T10:22:04;5.50;;;1.10;;
75016;SDS011;63577;39.766;2.720;2023-10-19T10:24:39;3.80;;;0.90;;
75016;SDS011;63577;39.766;2.720;2023-10-19T10:27:04;4.30;;;1.20;;
75016;SDS011;63577;39.766;2.720;2023-10-19T10:29:30;5.30;;;1.00;;
75016;SDS011;63577;39.766;2.720;2023-10-19T10:31:56;5.80;;;1.10;;
75016;SDS011;63577;39.766;2.720;2023-10-19T10:39:25;5.20;;;0.70;;
75016;SDS011;63577;39.766;2.720;2023-10-19T10:41:55;4.20;;;1.00;;
75016;SDS011;63577;39.766;2.720;2023-10-19T10:44:20;5.30;;;1.20;;
75016;SDS011;63577;39.766;2.720;2023-10-19T10:46:46;5.50;;;0.90;;
75016;SDS011;63577;39.766;2.720;2023-10-19T10:49:14;3.60;;;0.90;;
75016;SDS011;63577;39.766;2.720;2023-10-19T10:51:39;5.30;;;1.10;;
75016;SDS011;63577;39.766;2.720;2023-10-19T10:54:06;3.60;;;0.80;;
75016;SDS011;63577;39.766;2.720;2023-10-19T10:56:31;4.70;;;1.00;;
75016;SDS011;63577;39.766;2.720;2023-10-19T10:58:57;4.60;;;1.00;;
75016;SDS011;63577;39.766;2.720;2023-10-19T11:01:29;3.80;;;0.70;;
75016;SDS011;63577;39.766;2.720;2023-10-19T11:04:10;3.60;;;0.80;;
75016;SDS011;63577;39.766;2.720;2023-10-19T11:06:46;4.80;;;0.90;;
75016;SDS011;63577;39.766;2.720;2023-10-19T11:09:12;4.50;;;0.70;;
75016;SDS011;63577;39.766;2.720;2023-10-19T11:11:37;4.20;;;0.80;;
75016;SDS011;63577;39.766;2.720;2023-10-19T11:14:10;4.40;;;0.90;;
75016;SDS011;63577;39.766;2.720;2023-10-19T11:16:36;4.70;;;0.90;;
75016;SDS011;63577;39.766;2.720;2023-10-19T11:19:02;4.40;;;1.00;;
75016;SDS011;63577;39.766;2.720;2023-10-19T11:21:27;5.80;;;0.90;;
75016;SDS011;63577;39.766;2.720;2023-10-19T11:23:53;4.70;;;0.90;;
75016;SDS011;63577;39.766;2.720;2023-10-19T11:26:22;6.30;;;0.90;;
75016;SDS011;63577;39.766;2.720;2023-10-19T11:28:49;4.50;;;0.90;;
75016;SDS011;63577;39.766;2.720;2023-10-19T11:31:21;4.60;;;0.80;;
75016;SDS011;63577;39.766;2.720;2023-10-19T11:33:47;4.70;;;0.80;;
75016;SDS011;63577;39.766;2.720;2023-10-19T11:36:16;4.80;;;0.90;;
75016;SDS011;63577;39.766;2.720;2023-10-19T11:38:42;5.40;;;1.00;;
75016;SDS011;63577;39.766;2.720;2023-10-19T11:41:08;3.80;;;0.80;;
75016;SDS011;63577;39.766;2.720;2023-10-19T11:43:34;7.40;;;1.50;;
75016;SDS011;63577;39.766;2.720;2023-10-19T11:46:00;5.60;;;1.10;;
75016;SDS011;63577;39.766;2.720;2023-10-19T11:48:25;4.60;;;0.80;;
75016;SDS011;63577;39.766;2.720;2023-10-19T11:50:51;5.00;;;0.90;;
75016;SDS011;63577;39.766;2.720;2023-10-19T11:53:16;5.30;;;1.00;;
75016;SDS011;63577;39.766;2.720;2023-10-19T11:55:42;5.10;;;1.00;;
75016;SDS011;63577;39.766;2.720;2023-10-19T11:58:07;7.70;;;1.00;;
75016;SDS011;63577;39.766;2.720;2023-10-19T12:00:36;5.30;;;1.10;;
75016;SDS011;63577;39.766;2.720;2023-10-19T12:03:03;5.30;;;1.10;;
75016;SDS011;63577;39.766;2.720;2023-10-19T12:05:28;11.70;;;1.00;;
75016;SDS011;63577;39.766;2.720;2023-10-19T12:07:54;6.80;;;1.20;;
75016;SDS011;63577;39.766;2.720;2023-10-19T12:10:21;6.80;;;1.20;;
75016;SDS011;63577;39.766;2.720;2023-10-19T12:12:57;6.50;;;1.10;;
75016;SDS011;63577;39.766;2.720;2023-10-19T12:15:23;6.50;;;1.20;;
75016;SDS011;63577;39.766;2.720;2023-10-19T12:17:48;7.30;;;1.30;;
75016;SDS011;63577;39.766;2.720;2023-10-19T12:20:15;5.80;;;1.40;;
75016;SDS011;63577;39.766;2.720;2023-10-19T12:22:41;7.70;;;1.70;;
75016;SDS011;63577;39.766;2.720;2023-10-19T12:25:07;6.10;;;1.30;;
75016;SDS011;63577;39.766;2.720;2023-10-19T12:27:32;7.50;;;1.30;;
75016;SDS011;63577;39.766;2.720;2023-10-19T12:29:58;6.90;;;1.40;;
75016;SDS011;63577;39.766;2.720;2023-10-19T12:32:26;6.80;;;1.30;;
75016;SDS011;63577;39.766;2.720;2023-10-19T12:34:51;7.90;;;1.60;;
75016;SDS011;63577;39.766;2.720;2023-10-19T12:37:23;9.00;;;1.90;;
75016;SDS011;63577;39.766;2.720;2023-10-19T12:39:49;9.50;;;1.50;;
75016;SDS011;63577;39.766;2.720;2023-10-19T12:42:15;6.70;;;1.50;;
75016;SDS011;63577;39.766;2.720;2023-10-19T12:44:40;7.20;;;1.70;;
75016;SDS011;63577;39.766;2.720;2023-10-19T12:47:09;6.80;;;1.30;;
75016;SDS011;63577;39.766;2.720;2023-10-19T12:52:01;8.50;;;1.30;;
75016;SDS011;63577;39.766;2.720;2023-10-19T12:54:28;7.40;;;1.30;;
75016;SDS011;63577;39.766;2.720;2023-10-19T12:56:54;7.50;;;1.30;;
75016;SDS011;63577;39.766;2.720;2023-10-19T12:59:19;5.00;;;1.00;;
75016;SDS011;63577;39.766;2.720;2023-10-19T13:01:44;7.90;;;1.50;;
75016;SDS011;63577;39.766;2.720;2023-10-19T13:04:13;6.80;;;1.20;;
75016;SDS011;63577;39.766;2.720;2023-10-19T13:06:41;7.80;;;1.40;;
75016;SDS011;63577;39.766;2.720;2023-10-19T13:09:07;8.10;;;1.30;;
75016;SDS011;63577;39.766;2.720;2023-10-19T13:11:34;7.40;;;1.30;;
75016;SDS011;63577;39.766;2.720;2023-10-19T13:13:59;6.50;;;1.30;;
75016;SDS011;63577;39.766;2.720;2023-10-19T13:16:25;5.70;;;1.10;;
75016;SDS011;63577;39.766;2.720;2023-10-19T13:18:51;6.50;;;1.20;;
75016;SDS011;63577;39.766;2.720;2023-10-19T13:21:16;6.80;;;1.20;;
75016;SDS011;63577;39.766;2.720;2023-10-19T13:23:47;6.50;;;1.30;;
75016;SDS011;63577;39.766;2.720;2023-10-19T13:26:13;6.00;;;1.10;;
75016;SDS011;63577;39.766;2.720;2023-10-19T13:28:45;7.70;;;1.10;;
75016;SDS011;63577;39.766;2.720;2023-10-19T13:31:11;6.40;;;1.20;;
75016;SDS011;63577;39.766;2.720;2023-10-19T13:33:39;8.00;;;1.40;;
75016;SDS011;63577;39.766;2.720;2023-10-19T13:36:05;8.20;;;1.50;;
75016;SDS011;63577;39.766;2.720;2023-10-19T13:38:30;9.30;;;1.60;;
75016;SDS011;63577;39.766;2.720;2023-10-19T13:40:56;8.70;;;1.40;;
75016;SDS011;63577;39.766;2.720;2023-10-19T13:43:21;7.20;;;1.40;;
75016;SDS011;63577;39.766;2.720;2023-10-19T13:45:47;9.40;;;1.80;;
75016;SDS011;63577;39.766;2.720;2023-10-19T13:48:13;7.90;;;1.50;;
75016;SDS011;63577;39.766;2.720;2023-10-19T13:50:48;9.50;;;1.90;;
75016;SDS011;63577;39.766;2.720;2023-10-19T13:53:14;7.90;;;1.30;;
75016;SDS011;63577;39.766;2.720;2023-10-19T13:55:40;8.20;;;1.40;;
75016;SDS011;63577;39.766;2.720;2023-10-19T13:58:06;12.00;;;1.80;;
75016;SDS011;63577;39.766;2.720;2023-10-19T14:00:34;9.00;;;1.60;;
75016;SDS011;63577;39.766;2.720;2023-10-19T14:02:59;11.70;;;1.90;;
75016;SDS011;63577;39.766;2.720;2023-10-19T14:05:26;14.20;;;1.50;;
75016;SDS011;63577;39.766;2.720;2023-10-19T14:07:51;8.40;;;1.60;;
75016;SDS011;63577;39.766;2.720;2023-10-19T14:10:17;10.40;;;1.40;;
75016;SDS011;63577;39.766;2.720;2023-10-19T14:12:44;12.80;;;1.80;;
75016;SDS011;63577;39.766;2.720;2023-10-19T14:15:14;9.70;;;1.70;;
75016;SDS011;63577;39.766;2.720;2023-10-19T14:17:40;10.50;;;1.80;;
75016;SDS011;63577;39.766;2.720;2023-10-19T14:20:06;11.40;;;1.70;;
75016;SDS011;63577;39.766;2.720;2023-10-19T14:22:31;11.00;;;1.80;;
75016;SDS011;63577;39.766;2.720;2023-10-19T14:25:00;10.20;;;1.90;;
75016;SDS011;63577;39.766;2.720;2023-10-19T14:27:25;10.90;;;1.70;;
75016;SDS011;63577;39.766;2.720;2023-10-19T14:29:50;8.80;;;2.10;;
75016;SDS011;63577;39.766;2.720;2023-10-19T14:32:16;11.10;;;1.50;;
75016;SDS011;63577;39.766;2.720;2023-10-19T14:34:41;9.90;;;1.60;;
75016;SDS011;63577;39.766;2.720;2023-10-19T14:37:07;8.50;;;1.30;;
75016;SDS011;63577;39.766;2.720;2023-10-19T14:39:33;11.00;;;1.80;;
75016;SDS011;63577;39.766;2.720;2023-10-19T14:41:58;11.50;;;1.70;;
75016;SDS011;63577;39.766;2.720;2023-10-19T14:44:24;11.90;;;1.90;;
75016;SDS011;63577;39.766;2.720;2023-10-19T14:46:49;9.90;;;1.80;;
75016;SDS011;63577;39.766;2.720;2023-10-19T14:49:14;9.50;;;1.50;;
75016;SDS011;63577;39.766;2.720;2023-10-19T14:51:40;10.30;;;1.90;;
75016;SDS011;63577;39.766;2.720;2023-10-19T14:54:06;9.70;;;1.80;;
75016;SDS011;63577;39.766;2.720;2023-10-19T14:56:33;10.30;;;2.00;;
75016;SDS011;63577;39.766;2.720;2023-10-19T14:58:58;9.80;;;1.60;;
75016;SDS011;63577;39.766;2.720;2023-10-19T15:01:24;9.70;;;2.00;;
75016;SDS011;63577;39.766;2.720;2023-10-19T15:03:51;13.00;;;1.70;;
75016;SDS011;63577;39.766;2.720;2023-10-19T15:06:16;10.60;;;1.70;;